Kezdőlap
METAR-TAF:

METAR-TAF

Repülőterek :

Batna, Algéria

földrajzi szélesség: 35-33N, földrajzi hosszúság: 006-11E, magasság: 1052 m

Jelenlegi meteorológiai megfigyelések

A jelentés 23 perccel ezelõtt készült, 23:00 UTC
Dél-délkeleti szél 9 kt
Hőmérséklet 30°C
Páratartalom 29%
Légköri nyomás 1018 hPa
Látótávolság: 8000 m
Kevés felhő 2300 lábon, Cumulonimbus.
Szórványos felhőzet 2600 lábon

METAR: DABT 172300Z 16009KT 8000 FEW023CB SCT026 30/10 Q1018

Idő: 00:23 (23:23 UTC)

Előrejelzés

A jelentés 6 órával és 23 perccel ezelõtt készült, 17:00 UTC
Az előrejelzés 17-én 18 óra UTC és 18-én 18 óra UTC között érvényes
Délnyugati szél 14 kt
Látótávolság: 8000 m
Szórványos felhőzet 2600 lábon
Valószínűség 40% :
17-én 18 óra UTC és 17-én 24 óra UTC között ideiglenes
Délnyugati szél 15 kt széllökések: 25 kt
Kevés felhő 3000 lábon, Cumulonimbus.

TAF: DABT 171700Z 1718/1818 23014KT 8000 SCT026 PROB40 TEMPO 1718/1724 23015G25KT FEW030CB

Meteorológiai megfigyelések és előrejelzések több, mint 4000 repülőtéren (METAR és TAF jelentéseket).

A térképen piros és sárga pontok jelzik az elérhető meteorológiai állomásokat.

Mozgassa az egeret a pont fölött, hogy megjelenjen az állomás neve.

Azután kattintson az időjárási megfigyelések és előrejelzések megtekintéséhez.

A térkép megváltoztatása: kattintson a fekete keresztel jelölt zöld gombra ráközelítéshez, a vonallal jelölt zöld gombra távolításhoz, vagy a zöld nyilakra a szomszédos térképek eléréséhez.


METAR-TAF: